createdAt,value
2023-01-03T00:02:27.277Z,64.53
2023-01-03T00:04:55.002Z,65.02
2023-01-03T00:07:34.759Z,65.78
2023-01-03T00:10:06.303Z,67.10
2023-01-03T00:12:33.841Z,66.73
2023-01-03T00:15:01.974Z,66.02
2023-01-03T00:17:29.574Z,65.00
2023-01-03T00:19:57.080Z,65.73
2023-01-03T00:22:24.596Z,64.36
2023-01-03T00:24:53.946Z,64.06
2023-01-03T00:27:22.836Z,64.97
2023-01-03T00:29:50.709Z,64.89
2023-01-03T00:32:18.300Z,65.49
2023-01-03T00:34:47.086Z,64.24
2023-01-03T00:37:15.804Z,64.66
2023-01-03T00:39:44.748Z,65.21
2023-01-03T00:42:12.595Z,65.63
2023-01-03T00:44:41.743Z,65.37
2023-01-03T00:47:09.420Z,64.87
2023-01-03T00:49:37.073Z,63.88
2023-01-03T00:52:04.881Z,64.85
2023-01-03T00:54:32.373Z,64.89
2023-01-03T00:56:59.897Z,64.96
2023-01-03T00:59:27.601Z,63.78
2023-01-03T01:01:58.686Z,63.48
2023-01-03T01:04:29.005Z,64.00
2023-01-03T01:06:58.833Z,63.97
2023-01-03T01:09:28.458Z,64.47
2023-01-03T01:11:56.698Z,64.32
2023-01-03T01:14:26.406Z,63.94
2023-01-03T01:16:56.957Z,64.14
2023-01-03T01:19:26.772Z,64.24
2023-01-03T01:21:54.950Z,64.20
2023-01-03T01:24:23.093Z,64.18
2023-01-03T01:26:51.281Z,63.75
2023-01-03T01:29:19.543Z,64.83
2023-01-03T01:31:48.312Z,64.54
2023-01-03T01:34:17.769Z,64.80
2023-01-03T01:36:46.847Z,64.68
2023-01-03T01:39:16.412Z,65.02
2023-01-03T01:42:03.054Z,65.26
2023-01-03T01:44:54.128Z,64.54
2023-01-03T01:47:28.422Z,64.64
2023-01-03T01:50:02.307Z,63.48
2023-01-03T01:52:31.331Z,63.54
2023-01-03T01:55:00.595Z,63.68
2023-01-03T01:57:28.285Z,63.51
2023-01-03T01:59:55.777Z,63.72
2023-01-03T02:02:24.815Z,62.99
2023-01-03T02:04:55.089Z,63.21
2023-01-03T02:07:24.303Z,63.05
2023-01-03T02:09:56.245Z,63.27
2023-01-03T02:12:48.964Z,63.24
2023-01-03T02:15:26.253Z,63.46
2023-01-03T02:18:12.295Z,63.26
2023-01-03T02:21:00.127Z,63.54
2023-01-03T02:24:13.161Z,63.08
2023-01-03T02:26:56.310Z,63.50
2023-01-03T02:29:55.697Z,63.79
2023-01-03T02:32:37.696Z,64.54
2023-01-03T02:35:09.813Z,65.15
2023-01-03T02:37:43.261Z,64.77
2023-01-03T02:40:19.194Z,65.57
2023-01-03T02:43:01.984Z,65.25
2023-01-03T02:45:46.960Z,64.78
2023-01-03T02:48:20.073Z,64.05
2023-01-03T02:50:50.259Z,63.84
2023-01-03T02:53:25.946Z,64.00
2023-01-03T02:55:59.621Z,65.89
2023-01-03T02:58:31.353Z,64.91
2023-01-03T03:01:00.252Z,64.64
2023-01-03T03:03:34.017Z,65.74
2023-01-03T03:06:08.790Z,67.85
2023-01-03T03:08:36.519Z,66.67
2023-01-03T03:11:21.989Z,66.67
2023-01-03T03:13:53.846Z,68.08
2023-01-03T03:16:43.544Z,68.02
2023-01-03T03:19:48.342Z,68.60
2023-01-03T03:22:41.281Z,69.16
2023-01-03T03:25:12.861Z,68.90
2023-01-03T03:28:00.923Z,67.46
2023-01-03T03:30:31.403Z,66.70
2023-01-03T03:33:05.626Z,67.58
2023-01-03T03:35:42.703Z,68.67
2023-01-03T03:38:14.299Z,67.76
2023-01-03T03:41:06.498Z,67.53
2023-01-03T03:43:59.161Z,67.08
2023-01-03T03:46:34.213Z,67.57
2023-01-03T03:49:24.661Z,68.01
2023-01-03T03:51:56.806Z,68.35
2023-01-03T03:54:26.837Z,67.48
2023-01-03T03:57:01.587Z,66.93
2023-01-03T03:59:31.994Z,66.60
2023-01-03T04:02:03.071Z,67.21
2023-01-03T04:04:36.459Z,68.13
2023-01-03T04:07:05.766Z,68.71
2023-01-03T04:09:33.482Z,68.42
2023-01-03T04:12:00.983Z,68.25
2023-01-03T04:14:28.496Z,67.64
2023-01-03T04:16:56.039Z,67.58
2023-01-03T04:19:23.567Z,67.76
2023-01-03T04:21:51.061Z,68.01
2023-01-03T04:24:22.185Z,68.83
2023-01-03T04:26:49.761Z,68.61
2023-01-03T04:29:17.796Z,68.26
2023-01-03T04:31:45.522Z,69.17
2023-01-03T04:34:13.165Z,69.00
2023-01-03T04:36:40.703Z,68.72
2023-01-03T04:39:08.223Z,69.16
2023-01-03T04:41:37.067Z,69.29
2023-01-03T04:44:04.620Z,68.87
2023-01-03T04:46:34.056Z,68.45
2023-01-03T04:49:01.971Z,69.03
2023-01-03T04:51:29.769Z,69.73
2023-01-03T04:53:57.688Z,68.65
2023-01-03T04:56:26.285Z,68.08
2023-01-03T04:58:55.426Z,68.78
2023-01-03T05:01:23.655Z,68.57
2023-01-03T05:03:51.999Z,69.38
2023-01-03T05:06:19.730Z,69.20
2023-01-03T05:08:48.301Z,69.12
2023-01-03T05:11:15.783Z,69.28
2023-01-03T05:13:43.779Z,68.79
2023-01-03T05:16:14.559Z,68.78
2023-01-03T05:18:42.986Z,68.83
2023-01-03T05:21:32.821Z,69.55
2023-01-03T05:24:18.113Z,68.99
2023-01-03T05:26:46.059Z,68.02
2023-01-03T05:29:16.388Z,68.06
2023-01-03T05:31:45.319Z,68.15
2023-01-03T05:34:13.051Z,68.59
2023-01-03T05:36:40.623Z,68.96
2023-01-03T05:39:08.260Z,67.83
2023-01-03T05:41:53.325Z,67.21
2023-01-03T05:44:20.798Z,66.45
2023-01-03T05:46:49.772Z,66.26
2023-01-03T05:49:17.534Z,67.32
2023-01-03T05:51:45.119Z,67.60
2023-01-03T05:54:15.453Z,66.23
2023-01-03T05:56:43.130Z,66.14
2023-01-03T05:59:11.292Z,65.79
2023-01-03T06:01:39.102Z,66.10
2023-01-03T06:04:11.070Z,66.42
2023-01-03T06:06:38.642Z,66.68
2023-01-03T06:09:08.743Z,66.56
2023-01-03T06:11:36.300Z,67.65
2023-01-03T06:17:37.194Z,68.86
2023-01-03T06:20:07.119Z,69.80
2023-01-03T06:22:35.416Z,69.98
2023-01-03T06:25:03.044Z,68.67
2023-01-03T06:27:30.693Z,67.66
2023-01-03T06:29:58.285Z,66.89
2023-01-03T06:32:25.886Z,67.02
2023-01-03T06:34:53.425Z,67.27
2023-01-03T06:37:22.310Z,66.76
2023-01-03T06:39:49.874Z,66.52
2023-01-03T06:42:35.108Z,66.99
2023-01-03T06:45:20.215Z,66.55
2023-01-03T06:48:05.405Z,66.69
2023-01-03T06:50:50.708Z,66.94
2023-01-03T06:53:22.012Z,67.37
2023-01-03T06:55:56.336Z,67.88
2023-01-03T06:58:24.770Z,68.11
2023-01-03T07:00:53.145Z,68.55
2023-01-03T07:03:20.619Z,68.93
2023-01-03T07:05:48.147Z,68.65
2023-01-03T07:08:15.666Z,67.46
2023-01-03T07:10:44.619Z,68.02
2023-01-03T07:13:29.964Z,67.87
2023-01-03T07:15:57.519Z,68.28
2023-01-03T07:18:26.176Z,68.72
2023-01-03T07:20:53.689Z,67.17
2023-01-03T07:23:21.646Z,66.74
2023-01-03T07:25:50.498Z,66.73
2023-01-03T07:28:18.052Z,67.67
2023-01-03T07:30:46.879Z,67.77
2023-01-03T07:33:16.582Z,67.02
2023-01-03T07:35:44.152Z,67.58
2023-01-03T07:38:13.702Z,68.28
2023-01-03T07:40:41.468Z,68.65
2023-01-03T07:43:29.675Z,68.03
2023-01-03T07:45:57.350Z,67.56
2023-01-03T07:48:24.883Z,67.42
2023-01-03T07:50:57.902Z,68.17
2023-01-03T07:53:25.728Z,68.60
2023-01-03T07:55:53.236Z,69.21
2023-01-03T07:58:22.055Z,68.73
2023-01-03T08:00:49.555Z,68.11
2023-01-03T08:03:17.144Z,67.37
2023-01-03T08:05:44.725Z,66.75
2023-01-03T08:08:12.505Z,66.19
2023-01-03T08:10:57.829Z,66.44
2023-01-03T08:13:26.747Z,67.83
2023-01-03T08:15:56.286Z,68.46
2023-01-03T08:18:25.411Z,68.57
2023-01-03T08:20:55.120Z,68.94
2023-01-03T08:23:22.672Z,69.55
2023-01-03T08:25:50.183Z,69.62
2023-01-03T08:28:18.023Z,70.00
2023-01-03T08:30:50.411Z,69.49
2023-01-03T08:33:20.633Z,70.23
2023-01-03T08:35:51.889Z,69.50
2023-01-03T08:38:22.902Z,70.07
2023-01-03T08:40:50.565Z,68.11
2023-01-03T08:43:18.811Z,66.29
2023-01-03T08:45:49.010Z,65.68
2023-01-03T08:48:20.480Z,65.85
2023-01-03T08:50:48.572Z,65.30
2023-01-03T08:53:16.260Z,65.24
2023-01-03T08:55:44.244Z,66.44
2023-01-03T08:58:11.854Z,65.68
2023-01-03T09:00:40.012Z,64.83
2023-01-03T09:03:09.011Z,64.30
2023-01-03T09:05:37.706Z,65.02
2023-01-03T09:08:05.550Z,64.30
2023-01-03T09:10:33.221Z,64.73
2023-01-03T09:13:02.298Z,64.81
2023-01-03T09:15:29.922Z,64.41
2023-01-03T09:17:57.442Z,65.69
2023-01-03T09:20:26.438Z,65.52
2023-01-03T09:22:53.996Z,65.83
2023-01-03T09:25:21.537Z,66.64
2023-01-03T09:27:49.704Z,67.43
2023-01-03T09:30:19.803Z,65.90
2023-01-03T09:32:50.279Z,65.25
2023-01-03T09:35:18.255Z,66.11
2023-01-03T09:37:49.273Z,63.58
2023-01-03T09:40:17.959Z,63.68
2023-01-03T09:43:03.625Z,63.39
2023-01-03T09:45:34.286Z,63.25
2023-01-03T09:48:04.154Z,63.26
2023-01-03T09:50:57.285Z,62.56
2023-01-03T09:53:50.379Z,62.62
2023-01-03T09:56:35.728Z,64.79
2023-01-03T09:59:38.002Z,66.83
2023-01-03T10:02:45.533Z,66.25
2023-01-03T10:05:36.372Z,63.93
2023-01-03T10:08:30.686Z,63.44
2023-01-03T10:11:05.030Z,63.01
2023-01-03T10:13:44.272Z,63.73
2023-01-03T10:16:17.434Z,64.53
2023-01-03T10:19:04.478Z,63.48
2023-01-03T10:21:39.806Z,62.59
2023-01-03T10:24:19.102Z,61.53
2023-01-03T10:26:48.879Z,61.44
2023-01-03T10:29:19.064Z,62.81
2023-01-03T10:32:04.195Z,63.05
2023-01-03T10:34:32.021Z,62.23
2023-01-03T10:37:16.578Z,63.32
2023-01-03T10:39:45.846Z,61.80
2023-01-03T10:42:18.282Z,62.25
2023-01-03T10:44:58.688Z,61.19
2023-01-03T10:47:27.500Z,60.53
2023-01-03T10:50:00.566Z,59.97
2023-01-03T10:52:32.815Z,60.12
2023-01-03T10:55:04.172Z,61.09
2023-01-03T10:57:43.399Z,60.41
2023-01-03T11:00:23.685Z,62.35
2023-01-03T11:02:52.038Z,60.92
2023-01-03T11:05:21.594Z,60.54
2023-01-03T11:07:55.105Z,59.73
2023-01-03T11:10:25.579Z,61.04
2023-01-03T11:12:53.132Z,59.83
2023-01-03T11:15:37.837Z,59.68
2023-01-03T11:18:16.128Z,59.95
2023-01-03T11:20:50.187Z,58.49
2023-01-03T11:23:26.630Z,57.91
2023-01-03T11:26:04.849Z,58.74
2023-01-03T11:29:03.545Z,58.20
2023-01-03T11:31:41.162Z,56.79
2023-01-03T11:34:24.939Z,58.06
2023-01-03T11:37:00.187Z,56.18
2023-01-03T11:39:52.114Z,56.39
2023-01-03T11:42:37.122Z,55.90
2023-01-03T11:45:27.577Z,56.08
2023-01-03T11:48:06.966Z,54.83
2023-01-03T11:50:50.133Z,54.24
2023-01-03T11:53:29.433Z,54.71
2023-01-03T11:56:08.103Z,53.90
2023-01-03T11:58:57.974Z,53.60
2023-01-03T12:01:41.602Z,54.10
2023-01-03T12:04:28.337Z,53.34
2023-01-03T12:07:46.504Z,55.30
2023-01-03T12:10:10.139Z,54.47
2023-01-03T12:13:17.536Z,52.44
2023-01-03T12:15:51.203Z,52.58
2023-01-03T12:18:29.817Z,51.88
2023-01-03T12:21:05.297Z,50.88
2023-01-03T12:23:42.715Z,51.97
2023-01-03T12:26:13.416Z,52.52
2023-01-03T12:28:43.108Z,51.42
2023-01-03T12:31:29.495Z,51.79
2023-01-03T12:34:06.868Z,52.04
2023-01-03T12:36:42.102Z,50.15
2023-01-03T12:39:33.492Z,50.65
2023-01-03T12:42:06.509Z,50.68
2023-01-03T12:44:39.428Z,51.60
2023-01-03T12:47:18.249Z,50.03
2023-01-03T12:49:51.894Z,51.82
2023-01-03T12:52:22.382Z,51.67
2023-01-03T12:54:56.863Z,50.25
2023-01-03T12:57:56.903Z,50.28
2023-01-03T13:00:40.789Z,50.01
2023-01-03T13:03:19.732Z,51.92
2023-01-03T13:05:50.986Z,51.44
2023-01-03T13:08:27.573Z,52.17
2023-01-03T13:10:57.522Z,52.60
2023-01-03T13:13:25.122Z,52.29
2023-01-03T13:15:54.635Z,53.40
2023-01-03T13:18:38.899Z,52.31
2023-01-03T13:21:39.918Z,50.73
2023-01-03T13:24:08.434Z,53.61
2023-01-03T13:26:36.026Z,51.24
2023-01-03T13:29:43.753Z,50.46
2023-01-03T13:32:17.600Z,50.74
2023-01-03T13:35:36.197Z,53.49
2023-01-03T13:38:24.973Z,51.79
2023-01-03T13:43:46.645Z,52.58
2023-01-03T13:46:27.680Z,52.12
2023-01-03T13:48:58.937Z,51.42
2023-01-03T13:51:48.865Z,49.10
2023-01-03T13:54:55.851Z,49.31
2023-01-03T13:57:35.987Z,49.53
2023-01-03T14:00:10.932Z,48.91
2023-01-03T14:03:09.281Z,50.42
2023-01-03T14:05:58.090Z,49.22
2023-01-03T14:08:36.654Z,50.66
2023-01-03T14:11:27.889Z,50.04
2023-01-03T14:14:00.392Z,51.36
2023-01-03T14:16:31.463Z,51.00
2023-01-03T14:19:04.653Z,50.28
2023-01-03T14:21:46.081Z,50.55
2023-01-03T14:24:19.601Z,49.56
2023-01-03T14:26:49.259Z,50.59
2023-01-03T14:29:20.568Z,50.50
2023-01-03T14:31:50.536Z,51.25
2023-01-03T14:34:31.357Z,50.39
2023-01-03T14:37:04.831Z,50.89
2023-01-03T14:42:05.359Z,49.73
2023-01-03T14:44:34.056Z,50.65
2023-01-03T14:47:04.809Z,50.92
2023-01-03T14:49:41.505Z,49.60
2023-01-03T14:52:14.885Z,49.81
2023-01-03T14:54:45.793Z,50.23
2023-01-03T14:57:20.488Z,50.56
2023-01-03T14:59:49.589Z,50.92
2023-01-03T15:02:19.077Z,51.08
2023-01-03T15:04:53.365Z,50.65
2023-01-03T15:07:33.793Z,50.58
2023-01-03T15:10:18.029Z,50.46
2023-01-03T15:12:49.504Z,50.58
2023-01-03T15:15:23.873Z,50.43
2023-01-03T15:17:54.330Z,51.67
2023-01-03T15:20:28.524Z,51.04
2023-01-03T15:22:56.522Z,52.54
2023-01-03T15:25:33.733Z,51.21
2023-01-03T15:28:15.351Z,51.34
2023-01-03T15:30:49.418Z,52.05
2023-01-03T15:33:24.761Z,51.01
2023-01-03T15:35:55.288Z,51.76
2023-01-03T15:38:29.465Z,54.23
2023-01-03T15:40:57.160Z,52.84
2023-01-03T15:43:33.130Z,51.64
2023-01-03T15:46:04.214Z,51.55
2023-01-03T15:48:35.041Z,52.06
2023-01-03T15:51:03.735Z,52.08
2023-01-03T15:53:39.145Z,52.25
2023-01-03T15:56:18.694Z,52.42
2023-01-03T15:58:49.195Z,52.79
2023-01-03T16:01:17.867Z,53.17
2023-01-03T16:03:45.989Z,53.15
2023-01-03T16:06:13.535Z,53.37
2023-01-03T16:08:42.492Z,53.74
2023-01-03T16:11:18.438Z,53.86
2023-01-03T16:13:52.447Z,54.20
2023-01-03T16:16:24.403Z,54.32
2023-01-03T16:18:52.401Z,55.16
2023-01-03T16:21:20.738Z,55.06
2023-01-03T16:23:48.302Z,54.72
2023-01-03T16:26:16.706Z,54.92
2023-01-03T16:28:44.343Z,54.79
2023-01-03T16:31:15.741Z,54.74
2023-01-03T16:33:44.572Z,55.30
2023-01-03T16:36:33.202Z,55.53
2023-01-03T16:39:01.049Z,55.65
2023-01-03T16:41:28.710Z,55.80
2023-01-03T16:43:56.521Z,55.98
2023-01-03T16:46:27.178Z,56.00
2023-01-03T16:48:57.251Z,56.40
2023-01-03T16:51:28.169Z,56.76
2023-01-03T16:53:58.038Z,56.84
2023-01-03T16:56:25.892Z,56.25
2023-01-03T16:58:54.005Z,56.58
2023-01-03T17:01:21.670Z,56.50
2023-01-03T17:03:50.797Z,56.61
2023-01-03T17:06:35.065Z,56.90
2023-01-03T17:09:07.747Z,57.04
2023-01-03T17:11:35.511Z,57.24
2023-01-03T17:14:04.542Z,57.42
2023-01-03T17:16:32.782Z,57.16
2023-01-03T17:19:01.801Z,57.79
2023-01-03T17:21:31.357Z,57.46
2023-01-03T17:24:01.579Z,57.50
2023-01-03T17:26:32.312Z,57.63
2023-01-03T17:29:01.930Z,57.93
2023-01-03T17:31:29.931Z,58.00
2023-01-03T17:33:57.477Z,58.12
2023-01-03T17:36:28.759Z,58.20
2023-01-03T17:39:00.055Z,58.12
2023-01-03T17:41:28.591Z,57.80
2023-01-03T17:43:56.290Z,58.14
2023-01-03T17:46:42.814Z,58.43
2023-01-03T17:49:26.124Z,58.75
2023-01-03T17:51:58.049Z,59.62
2023-01-03T17:54:29.518Z,59.25
2023-01-03T17:56:58.411Z,58.98
2023-01-03T17:59:26.253Z,58.70
2023-01-03T18:01:54.682Z,58.94
2023-01-03T18:04:22.571Z,59.22
2023-01-03T18:06:56.730Z,59.96
2023-01-03T18:09:26.638Z,59.58
2023-01-03T18:11:54.450Z,59.75
2023-01-03T18:14:22.170Z,59.81
2023-01-03T18:16:54.894Z,60.33
2023-01-03T18:19:22.781Z,60.05
2023-01-03T18:21:50.572Z,60.48
2023-01-03T18:24:22.824Z,60.53
2023-01-03T18:26:54.385Z,60.24
2023-01-03T18:29:21.880Z,60.29
2023-01-03T18:31:49.711Z,60.27
2023-01-03T18:34:17.276Z,60.72
2023-01-03T18:36:48.338Z,60.55
2023-01-03T18:39:17.944Z,61.14
2023-01-03T18:41:46.818Z,61.11
2023-01-03T18:44:20.308Z,61.09
2023-01-03T18:46:48.487Z,60.96
2023-01-03T18:49:16.096Z,60.76
2023-01-03T18:51:44.028Z,61.01
2023-01-03T18:54:17.384Z,61.59
2023-01-03T18:56:45.248Z,61.32
2023-01-03T18:59:19.636Z,61.68
2023-01-03T19:01:47.361Z,61.54
2023-01-03T19:04:14.988Z,61.64
2023-01-03T19:06:45.305Z,62.16
2023-01-03T19:09:20.795Z,62.38
2023-01-03T19:11:49.455Z,62.50
2023-01-03T19:14:18.447Z,63.48
2023-01-03T19:16:45.959Z,63.18
2023-01-03T19:19:13.539Z,64.11
2023-01-03T19:21:42.681Z,63.42
2023-01-03T19:24:22.347Z,63.81
2023-01-03T19:26:53.801Z,63.59
2023-01-03T19:29:25.161Z,63.84
2023-01-03T19:31:56.107Z,64.34
2023-01-03T19:34:25.458Z,64.66
2023-01-03T19:36:53.474Z,64.20
2023-01-03T19:39:35.247Z,64.36
2023-01-03T19:42:51.574Z,64.22
2023-01-03T19:49:10.401Z,62.97
2023-01-03T19:54:30.101Z,63.32
2023-01-03T19:57:03.095Z,63.05
2023-01-03T19:59:34.800Z,63.21
2023-01-03T20:02:24.383Z,63.17
2023-01-03T20:04:55.040Z,63.43
2023-01-03T20:07:24.253Z,63.36
2023-01-03T20:09:51.757Z,63.50
2023-01-03T20:12:25.282Z,63.61
2023-01-03T20:14:55.184Z,63.80
2023-01-03T20:17:25.140Z,63.79
2023-01-03T20:19:53.607Z,64.17
2023-01-03T20:23:02.379Z,64.22
2023-01-03T20:25:24.465Z,63.98
2023-01-03T20:27:52.934Z,63.57
2023-01-03T20:30:23.689Z,63.71
2023-01-03T20:32:51.594Z,63.78
2023-01-03T20:36:09.531Z,64.30
2023-01-03T20:38:12.483Z,64.10
2023-01-03T20:40:40.247Z,63.89
2023-01-03T20:43:13.979Z,64.70
2023-01-03T20:45:41.666Z,65.31
2023-01-03T20:48:20.894Z,64.55
2023-01-03T20:50:52.485Z,64.41
2023-01-03T20:53:22.723Z,64.54
2023-01-03T20:55:51.561Z,64.48
2023-01-03T20:58:21.048Z,64.41
2023-01-03T21:00:49.196Z,64.86
2023-01-03T21:03:17.123Z,64.99
2023-01-03T21:05:44.822Z,64.40
2023-01-03T21:08:34.137Z,64.88
2023-01-03T21:11:02.963Z,64.66
2023-01-03T21:13:30.463Z,64.44
2023-01-03T21:15:58.291Z,64.79
2023-01-03T21:18:25.841Z,65.02
2023-01-03T21:20:53.346Z,64.58
2023-01-03T21:23:23.128Z,64.70
2023-01-03T21:25:51.121Z,64.94
2023-01-03T21:28:19.912Z,64.71
2023-01-03T21:30:47.403Z,64.82
2023-01-03T21:33:17.815Z,64.92
2023-01-03T21:35:46.137Z,64.68
2023-01-03T21:38:13.757Z,64.75
2023-01-03T21:40:41.256Z,64.80
2023-01-03T21:43:10.899Z,64.75
2023-01-03T21:45:41.899Z,64.85
2023-01-03T21:48:12.521Z,65.09
2023-01-03T21:50:42.232Z,65.07
2023-01-03T21:53:13.381Z,65.43
2023-01-03T21:55:41.092Z,65.40
2023-01-03T21:58:08.593Z,65.34
2023-01-03T22:00:36.099Z,65.10
2023-01-03T22:03:22.708Z,65.38
2023-01-03T22:05:50.223Z,65.19
2023-01-03T22:08:17.726Z,65.30
2023-01-03T22:10:44.284Z,65.71
2023-01-03T22:13:12.351Z,65.62
2023-01-03T22:15:40.537Z,65.74
2023-01-03T22:18:13.016Z,65.97
2023-01-03T22:20:40.545Z,65.96
2023-01-03T22:23:08.388Z,66.03
2023-01-03T22:25:35.904Z,66.22
2023-01-03T22:28:03.503Z,66.00
2023-01-03T22:30:31.390Z,66.42
2023-01-03T22:32:58.922Z,66.49
2023-01-03T22:35:27.762Z,67.24
2023-01-03T22:37:56.837Z,66.92
2023-01-03T22:40:24.345Z,66.36
2023-01-03T22:42:51.895Z,66.32
2023-01-03T22:45:19.564Z,65.96
2023-01-03T22:47:47.062Z,66.17
2023-01-03T22:50:14.562Z,65.81
2023-01-03T22:52:43.438Z,66.67
2023-01-03T22:55:11.633Z,65.89
2023-01-03T22:57:39.160Z,66.34
2023-01-03T23:00:10.419Z,66.21
2023-01-03T23:02:41.905Z,67.32
2023-01-03T23:05:10.185Z,67.12
2023-01-03T23:07:39.323Z,67.19
2023-01-03T23:10:10.211Z,66.25
2023-01-03T23:12:56.018Z,66.32
2023-01-03T23:15:23.718Z,66.11
2023-01-03T23:17:57.217Z,65.88
2023-01-03T23:20:28.984Z,65.89
2023-01-03T23:22:59.939Z,66.19
2023-01-03T23:25:29.446Z,66.52
2023-01-03T23:27:57.960Z,67.66
2023-01-03T23:30:26.011Z,67.26
2023-01-03T23:32:53.740Z,66.32
2023-01-03T23:35:21.215Z,66.82
2023-01-03T23:37:49.100Z,66.37
2023-01-03T23:40:16.807Z,65.85
2023-01-03T23:42:45.635Z,66.06
2023-01-03T23:45:13.388Z,66.09
2023-01-03T23:47:40.904Z,65.95
2023-01-03T23:50:08.871Z,65.52
2023-01-03T23:52:36.349Z,66.26
2023-01-03T23:55:11.941Z,66.27
2023-01-03T23:57:40.212Z,65.92
